createdAt,value
2016-10-27T00:00:07.783Z,1023.61
2016-10-27T00:01:07.771Z,1023.63
2016-10-27T00:02:07.751Z,1023.64
2016-10-27T00:03:07.734Z,1023.66
2016-10-27T00:04:07.718Z,1023.7
2016-10-27T00:05:07.701Z,1023.67
2016-10-27T00:06:07.684Z,1023.69
2016-10-27T00:07:07.669Z,1023.66
2016-10-27T00:08:07.650Z,1023.62
2016-10-27T00:09:07.634Z,1023.62
2016-10-27T00:10:07.617Z,1023.61
2016-10-27T00:11:07.599Z,1023.59
2016-10-27T00:12:07.585Z,1023.66
2016-10-27T00:13:07.565Z,1023.67
2016-10-27T00:14:07.550Z,1023.68
2016-10-27T00:15:07.537Z,1023.7
2016-10-27T00:16:07.518Z,1023.75
2016-10-27T00:17:07.501Z,1023.73
2016-10-27T00:18:07.484Z,1023.73
2016-10-27T00:19:07.464Z,1023.73
2016-10-27T00:20:07.451Z,1023.74
2016-10-27T00:21:07.432Z,1023.73
2016-10-27T00:22:07.417Z,1023.78
2016-10-27T00:23:07.398Z,1023.81
2016-10-27T00:24:07.384Z,1023.82
2016-10-27T00:25:07.368Z,1023.8
2016-10-27T00:26:07.353Z,1023.81
2016-10-27T00:27:07.333Z,1023.83
2016-10-27T00:28:07.314Z,1023.84
2016-10-27T00:29:07.302Z,1023.81
2016-10-27T00:30:07.282Z,1023.84
2016-10-27T00:31:07.268Z,1023.82
2016-10-27T00:32:07.247Z,1023.86
2016-10-27T00:33:07.232Z,1023.87
2016-10-27T00:34:07.216Z,1023.89
2016-10-27T00:35:07.197Z,1023.87
2016-10-27T00:36:07.182Z,1023.84
2016-10-27T00:37:07.165Z,1023.85
2016-10-27T00:38:07.153Z,1023.84
2016-10-27T00:39:07.132Z,1023.83
2016-10-27T00:40:07.120Z,1023.85
2016-10-27T00:41:07.098Z,1023.82
2016-10-27T00:42:07.085Z,1023.83
2016-10-27T00:43:07.066Z,1023.83
2016-10-27T00:44:07.049Z,1023.9
2016-10-27T00:45:07.032Z,1023.87
2016-10-27T00:46:07.013Z,1023.89
2016-10-27T00:47:07.003Z,1023.94
2016-10-27T00:48:06.981Z,1023.9
2016-10-27T00:49:06.968Z,1023.96
2016-10-27T00:50:06.947Z,1024.02
2016-10-27T00:51:06.930Z,1023.94
2016-10-27T00:52:06.916Z,1023.94
2016-10-27T00:53:06.896Z,1024.03
2016-10-27T00:54:06.880Z,1023.96
2016-10-27T00:55:06.863Z,1023.99
2016-10-27T00:56:06.846Z,1023.96
2016-10-27T00:57:06.831Z,1023.94
2016-10-27T00:58:06.813Z,1023.93
2016-10-27T00:59:06.795Z,1023.96
2016-10-27T01:00:06.780Z,1023.92
2016-10-27T01:01:06.762Z,1023.95
2016-10-27T01:02:06.743Z,1023.88
2016-10-27T01:03:06.729Z,1023.93
2016-10-27T01:04:06.714Z,1023.87
2016-10-27T01:05:06.697Z,1023.8
2016-10-27T01:06:06.677Z,1023.79
2016-10-27T01:07:06.662Z,1023.78
2016-10-27T01:08:06.645Z,1023.79
2016-10-27T01:09:06.626Z,1023.78
2016-10-27T01:10:06.610Z,1023.71
2016-10-27T01:11:06.593Z,1023.79
2016-10-27T01:12:06.574Z,1023.8
2016-10-27T01:13:06.560Z,1023.83
2016-10-27T01:14:06.543Z,1023.73
2016-10-27T01:15:06.524Z,1023.72
2016-10-27T01:16:06.509Z,1023.72
2016-10-27T01:17:06.490Z,1023.71
2016-10-27T01:18:06.476Z,1023.72
2016-10-27T01:19:06.459Z,1023.7
2016-10-27T01:20:06.442Z,1023.66
2016-10-27T01:21:06.424Z,1023.69
2016-10-27T01:22:06.409Z,1023.72
2016-10-27T01:23:06.390Z,1023.78
2016-10-27T01:24:06.373Z,1023.75
2016-10-27T01:25:06.356Z,1023.74
2016-10-27T01:26:06.342Z,1023.74
2016-10-27T01:27:06.323Z,1023.76
2016-10-27T01:28:06.306Z,1023.74
2016-10-27T01:29:06.291Z,1023.76
2016-10-27T01:30:06.271Z,1023.77
2016-10-27T01:31:06.256Z,1023.8
2016-10-27T01:32:06.238Z,1023.82
2016-10-27T01:33:06.220Z,1023.78
2016-10-27T01:34:06.204Z,1023.79
2016-10-27T01:35:06.187Z,1023.77
2016-10-27T01:36:06.172Z,1023.77
2016-10-27T01:37:06.157Z,1023.77
2016-10-27T01:38:06.135Z,1023.78
2016-10-27T01:39:06.118Z,1023.75
2016-10-27T01:40:06.103Z,1023.76
2016-10-27T01:41:06.087Z,1023.74
2016-10-27T01:42:06.070Z,1023.75
2016-10-27T01:43:06.051Z,1023.72
2016-10-27T01:44:06.042Z,1023.7
2016-10-27T01:45:06.019Z,1023.73
2016-10-27T01:46:06.004Z,1023.75
2016-10-27T01:47:05.986Z,1023.74
2016-10-27T01:48:05.969Z,1023.72
2016-10-27T01:49:05.951Z,1023.72
2016-10-27T01:50:05.934Z,1023.73
2016-10-27T01:51:05.921Z,1023.76
2016-10-27T01:52:05.902Z,1023.73
2016-10-27T01:53:05.884Z,1023.75
2016-10-27T01:54:05.867Z,1023.74
2016-10-27T01:55:05.850Z,1023.75
2016-10-27T01:56:05.833Z,1023.75
2016-10-27T01:57:05.814Z,1023.72
2016-10-27T01:58:05.803Z,1023.73
2016-10-27T01:59:05.783Z,1023.7
2016-10-27T02:00:05.766Z,1023.69
2016-10-27T02:01:05.749Z,1023.71
2016-10-27T02:02:05.732Z,1023.68
2016-10-27T02:03:05.715Z,1023.67
2016-10-27T02:04:05.697Z,1023.64
2016-10-27T02:05:05.683Z,1023.75
2016-10-27T02:06:05.665Z,1023.77
2016-10-27T02:07:05.648Z,1023.77
2016-10-27T02:08:05.629Z,1023.8
2016-10-27T02:09:05.612Z,1023.76
2016-10-27T02:10:05.598Z,1023.77
2016-10-27T02:11:05.579Z,1023.68
2016-10-27T02:12:05.564Z,1023.75
2016-10-27T02:13:05.546Z,1023.73
2016-10-27T02:14:05.529Z,1023.74
2016-10-27T02:15:05.512Z,1023.74
2016-10-27T02:16:05.498Z,1023.76
2016-10-27T02:17:05.478Z,1023.74
2016-10-27T02:18:05.460Z,1023.73
2016-10-27T02:19:05.445Z,1023.77
2016-10-27T02:20:05.428Z,1023.73
2016-10-27T02:21:05.416Z,1023.75
2016-10-27T02:22:05.393Z,1023.71
2016-10-27T02:23:05.375Z,1023.71
2016-10-27T02:24:05.358Z,1023.68
2016-10-27T02:25:05.341Z,1023.69
2016-10-27T02:26:05.325Z,1023.68
2016-10-27T02:27:05.310Z,1023.65
2016-10-27T02:28:05.293Z,1023.6
2016-10-27T02:29:05.275Z,1023.62
2016-10-27T02:30:05.258Z,1023.6
2016-10-27T02:31:05.240Z,1023.57
2016-10-27T02:32:05.222Z,1023.52
2016-10-27T02:33:05.204Z,1023.49
2016-10-27T02:34:05.189Z,1023.5
2016-10-27T02:35:05.174Z,1023.46
2016-10-27T02:36:05.155Z,1023.47
2016-10-27T02:37:05.139Z,1023.42
2016-10-27T02:38:05.123Z,1023.42
2016-10-27T02:39:05.103Z,1023.46
2016-10-27T02:40:05.088Z,1023.51
2016-10-27T02:41:05.070Z,1023.44
2016-10-27T02:42:05.055Z,1023.48
2016-10-27T02:43:05.036Z,1023.48
2016-10-27T02:44:05.025Z,1023.57
2016-10-27T02:45:05.004Z,1023.54
2016-10-27T02:46:04.986Z,1023.53
2016-10-27T02:47:04.969Z,1023.57
2016-10-27T02:48:04.950Z,1023.56
2016-10-27T02:49:04.937Z,1023.61
2016-10-27T02:50:04.919Z,1023.64
2016-10-27T02:51:04.900Z,1023.62
2016-10-27T02:52:04.886Z,1023.67
2016-10-27T02:53:04.868Z,1023.63
2016-10-27T02:54:04.851Z,1023.59
2016-10-27T02:55:04.833Z,1023.6
2016-10-27T02:56:04.814Z,1023.65
2016-10-27T02:57:04.799Z,1023.64
2016-10-27T02:58:04.782Z,1023.64
2016-10-27T02:59:04.764Z,1023.6
2016-10-27T03:00:04.749Z,1023.59
2016-10-27T03:01:04.732Z,1023.54
2016-10-27T03:02:04.715Z,1023.56
2016-10-27T03:03:04.700Z,1023.62
2016-10-27T03:04:04.679Z,1023.6
2016-10-27T03:05:04.667Z,1023.61
2016-10-27T03:06:04.644Z,1023.71
2016-10-27T03:07:04.631Z,1023.7
2016-10-27T03:08:04.611Z,1023.65
2016-10-27T03:09:04.592Z,1023.69
2016-10-27T03:10:04.577Z,1023.69
2016-10-27T03:11:04.565Z,1023.68
2016-10-27T03:12:04.545Z,1023.67
2016-10-27T03:13:04.527Z,1023.58
2016-10-27T03:14:04.508Z,1023.6
2016-10-27T03:15:04.490Z,1023.62
2016-10-27T03:16:04.476Z,1023.6
2016-10-27T03:17:04.461Z,1023.55
2016-10-27T03:18:04.442Z,1023.55
2016-10-27T03:19:04.427Z,1023.59
2016-10-27T03:20:04.408Z,1023.56
2016-10-27T03:21:04.396Z,1023.59
2016-10-27T03:22:04.375Z,1023.55
2016-10-27T03:23:04.358Z,1023.55
2016-10-27T03:24:04.341Z,1023.64
2016-10-27T03:25:04.334Z,1023.61
2016-10-27T03:26:04.308Z,1023.66
2016-10-27T03:27:04.290Z,1023.62
2016-10-27T03:28:04.273Z,1023.68
2016-10-27T03:29:04.257Z,1023.69
2016-10-27T03:30:04.243Z,1023.74
2016-10-27T03:31:04.223Z,1023.71
2016-10-27T03:32:04.206Z,1023.7
2016-10-27T03:33:04.191Z,1023.73
2016-10-27T03:34:04.174Z,1023.71
2016-10-27T03:35:04.159Z,1023.7
2016-10-27T03:36:04.137Z,1023.75
2016-10-27T03:37:04.120Z,1023.74
2016-10-27T03:38:04.103Z,1023.78
2016-10-27T03:39:04.088Z,1023.77
2016-10-27T03:40:04.070Z,1023.78
2016-10-27T03:41:04.053Z,1023.77
2016-10-27T03:42:04.040Z,1023.77
2016-10-27T03:43:04.019Z,1023.82
2016-10-27T03:44:04.006Z,1023.84
2016-10-27T03:45:03.985Z,1023.92
2016-10-27T03:46:03.968Z,1023.95
2016-10-27T03:47:03.952Z,1023.96
2016-10-27T03:48:03.936Z,1023.97
2016-10-27T03:49:03.920Z,1023.96
2016-10-27T03:50:03.900Z,1023.98
2016-10-27T03:51:03.885Z,1023.99
2016-10-27T03:52:03.869Z,1023.96
2016-10-27T03:53:03.849Z,1023.94
2016-10-27T03:54:03.832Z,1023.92
2016-10-27T03:55:03.815Z,1023.89
2016-10-27T03:56:03.803Z,1023.89
2016-10-27T03:57:03.780Z,1023.9
2016-10-27T03:58:03.763Z,1023.89
2016-10-27T03:59:03.746Z,1023.91
2016-10-27T04:00:03.732Z,1023.93
2016-10-27T04:01:03.714Z,1023.89
2016-10-27T04:02:03.699Z,1023.89
2016-10-27T04:03:03.684Z,1023.89
2016-10-27T04:04:03.664Z,1023.88
2016-10-27T04:05:03.648Z,1023.87
2016-10-27T04:06:03.631Z,1023.89
2016-10-27T04:07:03.615Z,1023.87
2016-10-27T04:08:03.594Z,1023.91
2016-10-27T04:09:03.577Z,1023.9
2016-10-27T04:10:03.561Z,1023.95
2016-10-27T04:11:03.544Z,1023.94
2016-10-27T04:12:03.530Z,1023.99
2016-10-27T04:13:03.512Z,1024
2016-10-27T04:14:03.493Z,1023.97
2016-10-27T04:15:03.478Z,1024.03
2016-10-27T04:16:03.459Z,1023.95
2016-10-27T04:17:03.443Z,1023.96
2016-10-27T04:18:03.425Z,1023.95
2016-10-27T04:19:03.407Z,1023.89
2016-10-27T04:20:03.390Z,1023.94
2016-10-27T04:21:03.375Z,1023.96
2016-10-27T04:22:03.356Z,1023.94
2016-10-27T04:23:03.340Z,1023.95
2016-10-27T04:24:03.328Z,1023.97
2016-10-27T04:25:03.306Z,1023.93
2016-10-27T04:26:03.296Z,1023.94
2016-10-27T04:27:03.273Z,1023.94
2016-10-27T04:28:03.254Z,1023.99
2016-10-27T04:29:03.241Z,1024.02
2016-10-27T04:30:03.220Z,1024.05
2016-10-27T04:31:03.207Z,1024.03
2016-10-27T04:32:03.190Z,1024.05
2016-10-27T04:33:03.172Z,1024
2016-10-27T04:34:03.155Z,1024.01
2016-10-27T04:35:03.140Z,1024.06
2016-10-27T04:36:03.122Z,1024.08
2016-10-27T04:37:03.105Z,1024.07
2016-10-27T04:38:03.088Z,1024.1
2016-10-27T04:39:03.076Z,1024.07
2016-10-27T04:40:03.056Z,1024.06
2016-10-27T04:41:03.037Z,1024.07
2016-10-27T04:42:03.023Z,1024.02
2016-10-27T04:43:03.004Z,1024.07
2016-10-27T04:44:02.987Z,1024.09
2016-10-27T04:45:02.970Z,1024.03
2016-10-27T04:46:02.955Z,1024.05
2016-10-27T04:47:02.943Z,1024.1
2016-10-27T04:48:02.920Z,1024.09
2016-10-27T04:49:02.903Z,1024.09
2016-10-27T04:50:02.888Z,1024.12
2016-10-27T04:51:02.870Z,1024.12
2016-10-27T04:52:02.855Z,1024.17
2016-10-27T04:53:02.838Z,1024.11
2016-10-27T04:54:02.819Z,1024.23
2016-10-27T04:55:02.808Z,1024.15
2016-10-27T04:56:02.789Z,1024.15
2016-10-27T04:57:02.773Z,1024.09
2016-10-27T04:58:02.754Z,1024.14
2016-10-27T04:59:02.736Z,1024.12
2016-10-27T05:00:02.722Z,1024.12
2016-10-27T05:01:02.705Z,1024.17
2016-10-27T05:02:02.688Z,1024.15
2016-10-27T05:03:02.671Z,1024.15
2016-10-27T05:04:02.654Z,1024.1
2016-10-27T05:05:02.638Z,1024.15
2016-10-27T05:06:02.621Z,1024.18
2016-10-27T05:07:02.610Z,1024.23
2016-10-27T05:08:02.585Z,1024.21
2016-10-27T05:09:02.572Z,1024.26
2016-10-27T05:10:02.555Z,1024.24
2016-10-27T05:11:02.537Z,1024.22
2016-10-27T05:12:02.522Z,1024.26
2016-10-27T05:13:02.505Z,1024.32
2016-10-27T05:14:02.490Z,1024.31
2016-10-27T05:15:02.474Z,1024.36
2016-10-27T05:16:02.462Z,1024.34
2016-10-27T05:17:02.438Z,1024.35
2016-10-27T05:18:02.423Z,1024.38
2016-10-27T05:19:02.403Z,1024.4
2016-10-27T05:20:02.390Z,1024.41
2016-10-27T05:21:02.372Z,1024.46
2016-10-27T05:22:02.353Z,1024.42
2016-10-27T05:23:02.341Z,1024.42
2016-10-27T05:24:02.321Z,1024.38
2016-10-27T05:25:02.305Z,1024.43
2016-10-27T05:26:02.288Z,1024.42
2016-10-27T05:27:02.271Z,1024.4
2016-10-27T05:28:02.255Z,1024.44
2016-10-27T05:29:02.238Z,1024.4
2016-10-27T05:30:02.223Z,1024.41
2016-10-27T05:31:02.207Z,1024.39
2016-10-27T05:32:02.190Z,1024.41
2016-10-27T05:33:02.173Z,1024.53
2016-10-27T05:34:02.155Z,1024.47
2016-10-27T05:35:02.139Z,1024.46
2016-10-27T05:36:02.122Z,1024.45
2016-10-27T05:37:02.106Z,1024.42
2016-10-27T05:38:02.122Z,1024.41
2016-10-27T05:39:02.070Z,1024.41
2016-10-27T05:40:02.056Z,1024.42
2016-10-27T05:41:02.039Z,1024.44
2016-10-27T05:42:02.024Z,1024.49
2016-10-27T05:43:02.004Z,1024.48
2016-10-27T05:44:01.989Z,1024.54
2016-10-27T05:45:01.974Z,1024.54
2016-10-27T05:46:01.957Z,1024.52
2016-10-27T05:47:01.941Z,1024.55
2016-10-27T05:48:01.924Z,1024.55
2016-10-27T05:49:01.905Z,1024.52
2016-10-27T05:50:01.892Z,1024.52
2016-10-27T05:51:01.875Z,1024.59
2016-10-27T05:52:01.862Z,1024.55
2016-10-27T05:53:01.840Z,1024.55
2016-10-27T05:54:01.826Z,1024.55
2016-10-27T05:55:01.808Z,1024.54
2016-10-27T05:56:01.790Z,1024.52
2016-10-27T05:57:01.773Z,1024.5
2016-10-27T05:58:01.758Z,1024.5
2016-10-27T05:59:01.741Z,1024.53
2016-10-27T06:00:01.725Z,1024.47
2016-10-27T06:01:01.712Z,1024.5
2016-10-27T06:02:01.691Z,1024.48
2016-10-27T06:03:01.676Z,1024.48
2016-10-27T06:04:01.658Z,1024.5
2016-10-27T06:05:01.642Z,1024.52
2016-10-27T06:06:01.624Z,1024.53
2016-10-27T06:07:01.609Z,1024.5
2016-10-27T06:08:01.592Z,1024.51
2016-10-27T06:09:01.574Z,1024.48
2016-10-27T06:10:01.563Z,1024.56
2016-10-27T06:11:01.543Z,1024.53
2016-10-27T06:12:01.526Z,1024.55
2016-10-27T06:13:01.509Z,1024.58
2016-10-27T06:14:01.496Z,1024.57
2016-10-27T06:15:01.477Z,1024.56
2016-10-27T06:16:01.458Z,1024.61
2016-10-27T06:17:01.446Z,1024.61
2016-10-27T06:18:01.427Z,1024.61
2016-10-27T06:19:01.412Z,1024.69
2016-10-27T06:20:01.393Z,1024.66
2016-10-27T06:21:01.377Z,1024.7
2016-10-27T06:22:01.360Z,1024.69
2016-10-27T06:23:01.347Z,1024.64
2016-10-27T06:24:01.325Z,1024.7
2016-10-27T06:25:01.311Z,1024.71
2016-10-27T06:26:01.293Z,1024.73
2016-10-27T06:27:01.279Z,1024.69
2016-10-27T06:28:01.261Z,1024.75
2016-10-27T06:29:01.246Z,1024.75
2016-10-27T06:30:01.229Z,1024.8
2016-10-27T06:31:01.211Z,1024.78
2016-10-27T06:32:01.196Z,1024.83
2016-10-27T06:33:01.180Z,1024.8
2016-10-27T06:34:01.162Z,1024.82
2016-10-27T06:35:01.144Z,1024.85
2016-10-27T06:36:01.129Z,1024.83
2016-10-27T06:37:01.110Z,1024.83
2016-10-27T06:38:01.094Z,1024.84
2016-10-27T06:39:01.079Z,1024.86
2016-10-27T06:40:01.061Z,1024.87
2016-10-27T06:41:01.045Z,1024.85
2016-10-27T06:42:01.033Z,1024.89
2016-10-27T06:43:01.013Z,1024.9
2016-10-27T06:44:00.997Z,1024.88
2016-10-27T06:45:00.980Z,1024.87
2016-10-27T06:46:00.963Z,1024.9
2016-10-27T06:47:00.947Z,1024.87
2016-10-27T06:48:00.933Z,1024.88
2016-10-27T06:49:00.914Z,1024.91
2016-10-27T06:50:00.898Z,1024.88
2016-10-27T06:51:00.883Z,1024.87
2016-10-27T06:52:00.868Z,1024.91
2016-10-27T06:53:00.846Z,1024.95
2016-10-27T06:54:00.831Z,1024.95
2016-10-27T06:55:00.815Z,1024.95
2016-10-27T06:56:00.796Z,1024.99
2016-10-27T06:57:00.783Z,1024.99
2016-10-27T06:58:00.764Z,1025
2016-10-27T06:59:00.748Z,1025.01
2016-10-27T07:00:00.730Z,1025.05
2016-10-27T07:01:00.718Z,1025.04
2016-10-27T07:02:00.697Z,1025.05
2016-10-27T07:03:00.681Z,1025.02
2016-10-27T07:04:00.664Z,1025.03
2016-10-27T07:05:00.649Z,1025.01
2016-10-27T07:06:00.632Z,1025.05
2016-10-27T07:07:00.615Z,1025.02
2016-10-27T07:08:00.599Z,1025.03
2016-10-27T07:09:00.581Z,1025.09
2016-10-27T07:10:00.565Z,1025.08
2016-10-27T07:11:00.548Z,1025.1
2016-10-27T07:12:00.533Z,1025.1
2016-10-27T07:13:00.516Z,1025.1
2016-10-27T07:14:00.498Z,1025.09
2016-10-27T07:15:00.485Z,1025.06
2016-10-27T07:16:00.468Z,1025.1
2016-10-27T07:17:00.451Z,1025.12
2016-10-27T07:18:00.431Z,1025.09
2016-10-27T07:19:00.416Z,1025.08
2016-10-27T07:20:00.399Z,1025.08
2016-10-27T07:21:00.384Z,1025.11
2016-10-27T07:22:00.364Z,1025.12
2016-10-27T07:23:00.347Z,1025.1
2016-10-27T07:24:00.335Z,1025.12
2016-10-27T07:25:00.318Z,1025.12
2016-10-27T07:26:00.299Z,1025.13
2016-10-27T07:27:00.283Z,1025.11
2016-10-27T07:28:00.267Z,1025.11
2016-10-27T07:29:00.248Z,1025.13
2016-10-27T07:30:00.235Z,1025.17
2016-10-27T07:31:00.217Z,1025.2
2016-10-27T07:32:00.200Z,1025.2
2016-10-27T07:33:00.184Z,1025.22
2016-10-27T07:34:00.168Z,1025.19
2016-10-27T07:35:00.151Z,1025.19
2016-10-27T07:36:00.135Z,1025.23
2016-10-27T07:37:00.120Z,1025.28
2016-10-27T07:38:00.101Z,1025.21
2016-10-27T07:39:00.084Z,1025.25
2016-10-27T07:40:00.065Z,1025.27
2016-10-27T07:41:00.051Z,1025.28
2016-10-27T07:42:00.038Z,1025.26
2016-10-27T07:43:00.018Z,1025.25
2016-10-27T07:43:59.999Z,1025.25
2016-10-27T07:44:59.985Z,1025.23
2016-10-27T07:45:59.967Z,1025.29
2016-10-27T07:46:59.955Z,1025.25
2016-10-27T07:47:59.932Z,1025.27
2016-10-27T07:48:59.917Z,1025.26
2016-10-27T07:49:59.900Z,1025.26
2016-10-27T07:50:59.885Z,1025.28
2016-10-27T07:51:59.869Z,1025.3
2016-10-27T07:52:59.851Z,1025.32
2016-10-27T07:53:59.833Z,1025.35
2016-10-27T07:54:59.821Z,1025.28
2016-10-27T07:55:59.799Z,1025.36
2016-10-27T07:56:59.785Z,1025.34
2016-10-27T07:57:59.766Z,1025.34
2016-10-27T07:58:59.759Z,1025.38
2016-10-27T07:59:59.734Z,1025.38
2016-10-27T08:00:59.717Z,1025.39
2016-10-27T08:01:59.701Z,1025.4
2016-10-27T08:02:59.684Z,1025.38
2016-10-27T08:03:59.671Z,1025.37
2016-10-27T08:04:59.650Z,1025.41
2016-10-27T08:05:59.635Z,1025.37
2016-10-27T08:06:59.619Z,1025.39
2016-10-27T08:07:59.602Z,1025.39
2016-10-27T08:08:59.586Z,1025.39
2016-10-27T08:09:59.567Z,1025.35
2016-10-27T08:10:59.550Z,1025.38
2016-10-27T08:11:59.533Z,1025.38
2016-10-27T08:12:59.516Z,1025.4
2016-10-27T08:13:59.503Z,1025.42
2016-10-27T08:14:59.484Z,1025.45
2016-10-27T08:15:59.467Z,1025.39
2016-10-27T08:16:59.451Z,1025.48
2016-10-27T08:17:59.433Z,1025.44
2016-10-27T08:18:59.421Z,1025.47
2016-10-27T08:19:59.400Z,1025.47
2016-10-27T08:20:59.384Z,1025.44
2016-10-27T08:21:59.368Z,1025.45
2016-10-27T08:22:59.348Z,1025.48
2016-10-27T08:23:59.332Z,1025.5
2016-10-27T08:24:59.317Z,1025.5
2016-10-27T08:25:59.301Z,1025.53
2016-10-27T08:26:59.283Z,1025.49
2016-10-27T08:27:59.266Z,1025.53
2016-10-27T08:28:59.251Z,1025.46
2016-10-27T08:29:59.238Z,1025.53
2016-10-27T08:30:59.216Z,1025.47
2016-10-27T08:31:59.199Z,1025.51
2016-10-27T08:32:59.184Z,1025.47
2016-10-27T08:33:59.164Z,1025.46
2016-10-27T08:34:59.147Z,1025.52
2016-10-27T08:35:59.132Z,1025.52
2016-10-27T08:36:59.118Z,1025.49
2016-10-27T08:37:59.104Z,1025.51
2016-10-27T08:38:59.084Z,1025.56
2016-10-27T08:39:59.065Z,1025.54
2016-10-27T08:40:59.050Z,1025.55
2016-10-27T08:41:59.033Z,1025.56
2016-10-27T08:42:59.018Z,1025.58
2016-10-27T08:43:58.997Z,1025.58
2016-10-27T08:44:58.979Z,1025.6
2016-10-27T08:45:58.966Z,1025.63
2016-10-27T08:46:58.950Z,1025.64
2016-10-27T08:47:58.931Z,1025.7
2016-10-27T08:48:58.913Z,1025.7
2016-10-27T08:49:58.897Z,1025.73
2016-10-27T08:50:58.882Z,1025.7
2016-10-27T08:51:58.865Z,1025.72
2016-10-27T08:52:58.848Z,1025.74
2016-10-27T08:53:58.832Z,1025.74
2016-10-27T08:54:58.815Z,1025.75
2016-10-27T08:55:58.797Z,1025.72
2016-10-27T08:56:58.780Z,1025.74
2016-10-27T08:57:58.763Z,1025.74
2016-10-27T08:58:58.748Z,1025.75
2016-10-27T08:59:58.731Z,1025.75
2016-10-27T09:00:58.713Z,1025.78
2016-10-27T09:01:58.696Z,1025.79
2016-10-27T09:02:58.685Z,1025.75
2016-10-27T09:03:58.662Z,1025.75
2016-10-27T09:04:58.645Z,1025.81
2016-10-27T09:05:58.641Z,1025.77
2016-10-27T09:06:58.612Z,1025.79
2016-10-27T09:07:58.592Z,1025.72
2016-10-27T09:08:58.580Z,1025.74
2016-10-27T09:09:58.567Z,1025.78
2016-10-27T09:10:58.545Z,1025.75
2016-10-27T09:11:58.530Z,1025.8
2016-10-27T09:12:58.513Z,1025.82
2016-10-27T09:13:58.502Z,1025.78
2016-10-27T09:14:58.479Z,1025.79
2016-10-27T09:15:58.463Z,1025.77
2016-10-27T09:16:58.446Z,1025.79
2016-10-27T09:17:58.427Z,1025.78
2016-10-27T09:18:58.411Z,1025.77
2016-10-27T09:19:58.395Z,1025.77
2016-10-27T09:20:58.379Z,1025.77
2016-10-27T09:21:58.363Z,1025.83
2016-10-27T09:22:58.345Z,1025.81
2016-10-27T09:23:58.327Z,1025.79
2016-10-27T09:24:58.313Z,1025.82
2016-10-27T09:25:58.294Z,1025.81
2016-10-27T09:26:58.278Z,1025.81
2016-10-27T09:27:58.264Z,1025.78
2016-10-27T09:28:58.244Z,1025.77
2016-10-27T09:29:58.225Z,1025.83
2016-10-27T09:30:58.209Z,1025.87
2016-10-27T09:31:58.194Z,1025.84
2016-10-27T09:32:58.178Z,1025.89
2016-10-27T09:33:58.159Z,1025.84
2016-10-27T09:34:58.148Z,1025.87
2016-10-27T09:35:58.130Z,1025.87
2016-10-27T09:36:58.117Z,1025.86
2016-10-27T09:37:58.095Z,1025.82
2016-10-27T09:38:58.078Z,1025.72
2016-10-27T09:39:58.061Z,1025.7
2016-10-27T09:40:58.045Z,1025.68
2016-10-27T09:41:58.027Z,1025.74
2016-10-27T09:42:58.013Z,1025.74
2016-10-27T09:43:57.991Z,1025.7
2016-10-27T09:44:57.976Z,1025.74
2016-10-27T09:45:57.960Z,1025.71
2016-10-27T09:46:57.942Z,1025.69
2016-10-27T09:47:57.922Z,1025.69
2016-10-27T09:48:57.911Z,1025.76
2016-10-27T09:49:57.892Z,1025.76
2016-10-27T09:50:57.877Z,1025.77
2016-10-27T09:51:57.857Z,1025.81
2016-10-27T09:52:57.842Z,1025.79
2016-10-27T09:53:57.825Z,1025.82
2016-10-27T09:54:57.808Z,1025.78
2016-10-27T09:55:57.792Z,1025.85
2016-10-27T09:56:57.775Z,1025.83
2016-10-27T09:57:57.756Z,1025.83
2016-10-27T09:58:57.739Z,1025.85
2016-10-27T09:59:57.729Z,1025.85
2016-10-27T10:00:57.706Z,1025.82
2016-10-27T10:01:57.687Z,1025.84
2016-10-27T10:02:57.673Z,1025.8
2016-10-27T10:03:57.657Z,1025.84
2016-10-27T10:04:57.641Z,1025.84
2016-10-27T10:05:57.622Z,1025.87
2016-10-27T10:06:57.605Z,1025.88
2016-10-27T10:07:57.590Z,1025.91
2016-10-27T10:08:57.572Z,1025.93
2016-10-27T10:09:57.554Z,1025.95
2016-10-27T10:10:57.538Z,1025.98
2016-10-27T10:11:57.523Z,1026
2016-10-27T10:12:57.504Z,1025.99
2016-10-27T10:13:57.488Z,1026.01
2016-10-27T10:14:57.471Z,1026.05
2016-10-27T10:15:57.454Z,1026.02
2016-10-27T10:16:57.436Z,1026.04
2016-10-27T10:17:57.421Z,1026.07
2016-10-27T10:18:57.403Z,1026.04
2016-10-27T10:19:57.388Z,1026.02
2016-10-27T10:20:57.372Z,1025.96
2016-10-27T10:21:57.355Z,1026.02
2016-10-27T10:22:57.335Z,1026.04
2016-10-27T10:23:57.320Z,1026
2016-10-27T10:24:57.301Z,1026.07
2016-10-27T10:25:57.302Z,1026.1
2016-10-27T10:26:57.269Z,1026.08
2016-10-27T10:27:57.254Z,1026.06
2016-10-27T10:28:57.237Z,1026.07
2016-10-27T10:29:57.221Z,1026.1
2016-10-27T10:30:57.202Z,1026.14
2016-10-27T10:31:57.187Z,1026.14
2016-10-27T10:32:57.172Z,1026.13
2016-10-27T10:33:57.152Z,1026.12
2016-10-27T10:34:57.134Z,1026.08
2016-10-27T10:35:57.118Z,1026.04
2016-10-27T10:36:57.102Z,1026.04
2016-10-27T10:37:57.085Z,1026
2016-10-27T10:38:57.068Z,1026.05
2016-10-27T10:39:57.049Z,1026.07
2016-10-27T10:40:57.033Z,1026.06
2016-10-27T10:41:57.015Z,1026.07
2016-10-27T10:42:56.999Z,1026.08
2016-10-27T10:43:56.984Z,1026.07
2016-10-27T10:44:56.967Z,1026.06
2016-10-27T10:45:56.956Z,1026.06
2016-10-27T10:46:56.933Z,1026.07
2016-10-27T10:47:56.922Z,1026.06
2016-10-27T10:48:56.900Z,1026.06
2016-10-27T10:49:56.879Z,1026.02
2016-10-27T10:50:56.867Z,1026.05
2016-10-27T10:51:57.076Z,1025.98
2016-10-27T10:52:56.831Z,1025.98
2016-10-27T10:53:56.814Z,1025.95
2016-10-27T10:54:56.800Z,1025.96
2016-10-27T10:55:56.781Z,1026.02
2016-10-27T10:56:56.764Z,1026.04
2016-10-27T10:57:56.748Z,1026.06
2016-10-27T10:58:56.728Z,1026.03
2016-10-27T10:59:56.713Z,1026.04
2016-10-27T11:00:56.700Z,1026.06
2016-10-27T11:01:56.681Z,1026.09
2016-10-27T11:02:56.663Z,1026.06
2016-10-27T11:03:56.646Z,1026.02
2016-10-27T11:04:56.629Z,1026.08
2016-10-27T11:05:56.614Z,1026.04
2016-10-27T11:06:56.596Z,1026.09
2016-10-27T11:07:56.579Z,1026.07
2016-10-27T11:08:56.562Z,1026.07
2016-10-27T11:09:56.545Z,1026.04
2016-10-27T11:10:56.529Z,1026.07
2016-10-27T11:11:56.512Z,1026.03
2016-10-27T11:12:56.495Z,1026.05
2016-10-27T11:13:56.480Z,1026.06
2016-10-27T11:14:56.459Z,1026.07
2016-10-27T11:15:56.445Z,1026.01
2016-10-27T11:16:56.436Z,1026.06
2016-10-27T11:17:56.411Z,1026
2016-10-27T11:18:56.395Z,1026
2016-10-27T11:19:56.378Z,1026.03
2016-10-27T11:20:56.361Z,1026.04
2016-10-27T11:21:56.342Z,1026.03
2016-10-27T11:22:56.397Z,1026.01
2016-10-27T11:23:56.309Z,1025.98
2016-10-27T11:24:56.293Z,1025.99
2016-10-27T11:25:56.276Z,1025.96
2016-10-27T11:26:56.258Z,1025.99
2016-10-27T11:27:56.243Z,1026.02
2016-10-27T11:28:56.224Z,1025.93
2016-10-27T11:29:56.216Z,1025.98
2016-10-27T11:30:56.191Z,1025.96
2016-10-27T11:31:56.176Z,1026.01
2016-10-27T11:32:56.156Z,1025.94
2016-10-27T11:33:56.144Z,1025.96
2016-10-27T11:34:56.124Z,1025.98
2016-10-27T11:35:56.107Z,1025.99
2016-10-27T11:36:56.092Z,1025.98
2016-10-27T11:37:56.076Z,1025.97
2016-10-27T11:38:56.057Z,1025.96
2016-10-27T11:39:56.040Z,1025.98
2016-10-27T11:40:56.024Z,1025.97
2016-10-27T11:41:56.006Z,1025.98
2016-10-27T11:42:55.989Z,1025.98
2016-10-27T11:43:55.971Z,1025.92
2016-10-27T11:44:55.956Z,1025.97
2016-10-27T11:45:55.939Z,1025.94
2016-10-27T11:46:55.924Z,1025.92
2016-10-27T11:47:55.906Z,1025.99
2016-10-27T11:48:55.888Z,1025.92
2016-10-27T11:49:55.869Z,1025.97
2016-10-27T11:50:55.854Z,1025.93
2016-10-27T11:51:55.838Z,1025.95
2016-10-27T11:52:55.819Z,1025.97
2016-10-27T11:53:55.803Z,1025.99
2016-10-27T11:54:55.784Z,1025.98
2016-10-27T11:55:55.769Z,1026
2016-10-27T11:56:55.752Z,1025.99
2016-10-27T11:57:55.735Z,1025.96
2016-10-27T11:58:55.723Z,1025.94
2016-10-27T11:59:55.702Z,1025.96
2016-10-27T12:00:55.685Z,1026.01
2016-10-27T12:01:55.669Z,1026.04
2016-10-27T12:02:55.652Z,1026.1
2016-10-27T12:03:55.635Z,1026.03
2016-10-27T12:04:55.620Z,1026.04
2016-10-27T12:05:55.599Z,1026.02
2016-10-27T12:06:55.583Z,1026.09
2016-10-27T12:07:55.567Z,1026.05